sensor_id;sensor_type;location;lat;lon;timestamp;pressure;altitude;pressure_sealevel;temperature;humidity
18784;BME280;9520;50.954;6.968;2022-07-11T00:00:03;101731.50;;;26.68;41.43
18784;BME280;9520;50.954;6.968;2022-07-11T00:00:26;101739.63;;;26.68;41.44
18784;BME280;9520;50.954;6.968;2022-07-11T00:00:47;101735.19;;;26.67;41.41
18784;BME280;9520;50.954;6.968;2022-07-11T00:01:09;101736.03;;;26.67;41.35
18784;BME280;9520;50.954;6.968;2022-07-11T00:01:32;101731.50;;;26.68;41.16
18784;BME280;9520;50.954;6.968;2022-07-11T00:01:54;101735.09;;;26.68;41.06
18784;BME280;9520;50.954;6.968;2022-07-11T00:02:17;101736.91;;;26.68;40.99
18784;BME280;9520;50.954;6.968;2022-07-11T00:02:40;101729.66;;;26.68;41.36
18784;BME280;9520;50.954;6.968;2022-07-11T00:03:03;101723.00;;;26.59;41.15
18784;BME280;9520;50.954;6.968;2022-07-11T00:03:25;101736.84;;;26.69;41.53
18784;BME280;9520;50.954;6.968;2022-07-11T00:03:47;101735.09;;;26.68;41.50
18784;BME280;9520;50.954;6.968;2022-07-11T00:04:09;101738.66;;;26.69;41.71
18784;BME280;9520;50.954;6.968;2022-07-11T00:04:31;101733.25;;;26.69;41.76
18784;BME280;9520;50.954;6.968;2022-07-11T00:04:54;101731.41;;;26.69;41.42
18784;BME280;9520;50.954;6.968;2022-07-11T00:05:16;101733.25;;;26.69;41.31
18784;BME280;9520;50.954;6.968;2022-07-11T00:05:38;101735.97;;;26.69;41.03
18784;BME280;9520;50.954;6.968;2022-07-11T00:06:00;101739.72;;;26.66;41.16
18784;BME280;9520;50.954;6.968;2022-07-11T00:06:22;101732.56;;;26.65;41.50
18784;BME280;9520;50.954;6.968;2022-07-11T00:06:44;101720.50;;;26.56;41.40
18784;BME280;9520;50.954;6.968;2022-07-11T00:07:06;101728.97;;;26.64;41.56
18784;BME280;9520;50.954;6.968;2022-07-11T00:07:28;101734.41;;;26.64;41.40
18784;BME280;9520;50.954;6.968;2022-07-11T00:07:51;101735.25;;;26.65;41.26
18784;BME280;9520;50.954;6.968;2022-07-11T00:08:13;101733.44;;;26.65;41.29
18784;BME280;9520;50.954;6.968;2022-07-11T00:08:34;101734.31;;;26.66;41.55
18784;BME280;9520;50.954;6.968;2022-07-11T00:08:56;101729.75;;;26.67;41.05
18784;BME280;9520;50.954;6.968;2022-07-11T00:09:18;101735.19;;;26.67;41.25
18784;BME280;9520;50.954;6.968;2022-07-11T00:09:41;101735.19;;;26.67;41.23
18784;BME280;9520;50.954;6.968;2022-07-11T00:10:03;101732.56;;;26.65;41.64
18784;BME280;9520;50.954;6.968;2022-07-11T00:10:25;101736.13;;;26.65;41.57
18784;BME280;9520;50.954;6.968;2022-07-11T00:10:47;101737.88;;;26.67;41.67
18784;BME280;9520;50.954;6.968;2022-07-11T00:11:09;101738.75;;;26.67;41.76
18784;BME280;9520;50.954;6.968;2022-07-11T00:11:31;101739.63;;;26.68;41.84
18784;BME280;9520;50.954;6.968;2022-07-11T00:11:53;101734.13;;;26.69;41.71
18784;BME280;9520;50.954;6.968;2022-07-11T00:12:15;101733.25;;;26.69;41.47
18784;BME280;9520;50.954;6.968;2022-07-11T00:12:39;101724.13;;;26.70;41.30
18784;BME280;9520;50.954;6.968;2022-07-11T00:13:00;101733.13;;;26.70;41.27
18784;BME280;9520;50.954;6.968;2022-07-11T00:13:22;101734.13;;;26.69;41.36
18784;BME280;9520;50.954;6.968;2022-07-11T00:13:44;101728.72;;;26.69;41.00
18784;BME280;9520;50.954;6.968;2022-07-11T00:14:06;101728.72;;;26.69;41.07
18784;BME280;9520;50.954;6.968;2022-07-11T00:14:29;101726.84;;;26.70;41.07
18784;BME280;9520;50.954;6.968;2022-07-11T00:14:52;101725.13;;;26.69;41.21
18784;BME280;9520;50.954;6.968;2022-07-11T00:15:14;101735.97;;;26.69;40.92
18784;BME280;9520;50.954;6.968;2022-07-11T00:15:35;101733.44;;;26.65;41.11
18784;BME280;9520;50.954;6.968;2022-07-11T00:15:58;101725.13;;;26.69;40.82
18784;BME280;9520;50.954;6.968;2022-07-11T00:16:20;101729.75;;;26.67;41.14
18784;BME280;9520;50.954;6.968;2022-07-11T00:16:42;101727.84;;;26.69;41.82
18784;BME280;9520;50.954;6.968;2022-07-11T00:17:04;101718.28;;;26.63;41.56
18784;BME280;9520;50.954;6.968;2022-07-11T00:17:27;101726.97;;;26.68;41.60
18784;BME280;9520;50.954;6.968;2022-07-11T00:17:49;101720.78;;;26.66;41.47
18784;BME280;9520;50.954;6.968;2022-07-11T00:18:10;101726.28;;;26.64;41.82
18784;BME280;9520;50.954;6.968;2022-07-11T00:18:33;101729.75;;;26.67;41.48
18784;BME280;9520;50.954;6.968;2022-07-11T00:18:56;101728.03;;;26.65;41.87
18784;BME280;9520;50.954;6.968;2022-07-11T00:19:19;101730.63;;;26.67;41.26
18784;BME280;9520;50.954;6.968;2022-07-11T00:19:41;101723.38;;;26.68;41.26
18784;BME280;9520;50.954;6.968;2022-07-11T00:20:07;101725.22;;;26.67;41.89
18784;BME280;9520;50.954;6.968;2022-07-11T00:20:33;101720.84;;;26.64;42.21
18784;BME280;9520;50.954;6.968;2022-07-11T00:20:55;101716.31;;;26.65;41.79
18784;BME280;9520;50.954;6.968;2022-07-11T00:21:58;101717.31;;;26.64;41.57
18784;BME280;9520;50.954;6.968;2022-07-11T00:22:21;101711.91;;;26.64;41.57
18784;BME280;9520;50.954;6.968;2022-07-11T00:23:08;101712.75;;;26.64;41.93
18784;BME280;9520;50.954;6.968;2022-07-11T00:25:08;101713.34;;;26.55;41.92
18784;BME280;9520;50.954;6.968;2022-07-11T00:25:33;101717.59;;;26.59;41.76
18784;BME280;9520;50.954;6.968;2022-07-11T00:25:54;101715.00;;;26.58;41.77
18784;BME280;9520;50.954;6.968;2022-07-11T00:26:17;101724.88;;;26.59;42.09
18784;BME280;9520;50.954;6.968;2022-07-11T00:27:16;101712.28;;;26.58;41.60
18784;BME280;9520;50.954;6.968;2022-07-11T00:28:09;101715.19;;;26.55;41.57
18784;BME280;9520;50.954;6.968;2022-07-11T00:28:31;101725.91;;;26.56;41.92
18784;BME280;9520;50.954;6.968;2022-07-11T00:28:53;101698.22;;;26.39;41.77
18784;BME280;9520;50.954;6.968;2022-07-11T00:29:15;101723.22;;;26.56;42.13
18784;BME280;9520;50.954;6.968;2022-07-11T00:29:37;101719.53;;;26.57;41.84
18784;BME280;9520;50.954;6.968;2022-07-11T00:30:02;101716.84;;;26.57;41.68
18784;BME280;9520;50.954;6.968;2022-07-11T00:30:24;101725.81;;;26.58;41.65
18784;BME280;9520;50.954;6.968;2022-07-11T00:30:45;101719.53;;;26.57;41.65
18784;BME280;9520;50.954;6.968;2022-07-11T00:31:07;101724.97;;;26.57;41.66
18784;BME280;9520;50.954;6.968;2022-07-11T00:31:31;101726.69;;;26.58;41.98
18784;BME280;9520;50.954;6.968;2022-07-11T00:31:53;101727.56;;;26.59;41.86
18784;BME280;9520;50.954;6.968;2022-07-11T00:32:15;101721.28;;;26.58;41.64
18784;BME280;9520;50.954;6.968;2022-07-11T00:32:38;101721.28;;;26.58;41.91
18784;BME280;9520;50.954;6.968;2022-07-11T00:32:59;101721.16;;;26.60;41.52
18784;BME280;9520;50.954;6.968;2022-07-11T00:33:21;101723.88;;;26.60;41.48
18784;BME280;9520;50.954;6.968;2022-07-11T00:33:43;101716.75;;;26.59;41.78
18784;BME280;9520;50.954;6.968;2022-07-11T00:34:06;101712.16;;;26.59;41.40
18784;BME280;9520;50.954;6.968;2022-07-11T00:34:28;101728.41;;;26.59;41.97
18784;BME280;9520;50.954;6.968;2022-07-11T00:34:49;101717.59;;;26.59;41.67
18784;BME280;9520;50.954;6.968;2022-07-11T00:35:13;101724.75;;;26.60;41.92
18784;BME280;9520;50.954;6.968;2022-07-11T00:35:34;101694.91;;;26.48;41.72
18784;BME280;9520;50.954;6.968;2022-07-11T00:35:56;101717.59;;;26.59;42.08
18784;BME280;9520;50.954;6.968;2022-07-11T00:36:18;101715.88;;;26.58;41.62
18784;BME280;9520;50.954;6.968;2022-07-11T00:37:22;101717.59;;;26.59;41.38
18784;BME280;9520;50.954;6.968;2022-07-11T00:37:45;101724.75;;;26.60;41.68
18784;BME280;9520;50.954;6.968;2022-07-11T00:38:06;101719.31;;;26.60;41.64
18784;BME280;9520;50.954;6.968;2022-07-11T00:38:28;101717.59;;;26.59;41.48
18784;BME280;9520;50.954;6.968;2022-07-11T00:38:50;101715.88;;;26.58;41.56
18784;BME280;9520;50.954;6.968;2022-07-11T00:39:12;101716.84;;;26.57;41.57
18784;BME280;9520;50.954;6.968;2022-07-11T00:39:34;101718.66;;;26.57;41.64
18784;BME280;9520;50.954;6.968;2022-07-11T00:39:56;101705.22;;;26.55;42.05
18784;BME280;9520;50.954;6.968;2022-07-11T00:40:20;101719.72;;;26.54;41.81
18784;BME280;9520;50.954;6.968;2022-07-11T00:40:43;101716.06;;;26.55;41.65
18784;BME280;9520;50.954;6.968;2022-07-11T00:41:05;101719.72;;;26.54;41.83
18784;BME280;9520;50.954;6.968;2022-07-11T00:41:26;101718.75;;;26.55;41.81
18784;BME280;9520;50.954;6.968;2022-07-11T00:41:48;101705.44;;;26.52;42.18
18784;BME280;9520;50.954;6.968;2022-07-11T00:42:11;101718.75;;;26.55;42.14
18784;BME280;9520;50.954;6.968;2022-07-11T00:42:32;101721.47;;;26.55;41.66
18784;BME280;9520;50.954;6.968;2022-07-11T00:42:54;101713.34;;;26.55;41.47
18784;BME280;9520;50.954;6.968;2022-07-11T00:43:16;101713.47;;;26.54;41.75
18784;BME280;9520;50.954;6.968;2022-07-11T00:43:41;101714.31;;;26.54;41.56
18784;BME280;9520;50.954;6.968;2022-07-11T00:44:03;101716.94;;;26.56;41.60
18784;BME280;9520;50.954;6.968;2022-07-11T00:44:25;101711.50;;;26.56;41.55
18784;BME280;9520;50.954;6.968;2022-07-11T00:44:48;101717.78;;;26.56;41.52
18784;BME280;9520;50.954;6.968;2022-07-11T00:45:11;101715.09;;;26.56;41.63
18784;BME280;9520;50.954;6.968;2022-07-11T00:45:33;101711.41;;;26.57;41.72
18784;BME280;9520;50.954;6.968;2022-07-11T00:45:54;101711.41;;;26.57;41.77
18784;BME280;9520;50.954;6.968;2022-07-11T00:46:16;101707.94;;;26.55;42.03
18784;BME280;9520;50.954;6.968;2022-07-11T00:46:39;101706.97;;;26.56;42.03
18784;BME280;9520;50.954;6.968;2022-07-11T00:47:01;101705.13;;;26.57;41.67
18784;BME280;9520;50.954;6.968;2022-07-11T00:47:22;101715.09;;;26.56;42.00
18784;BME280;9520;50.954;6.968;2022-07-11T00:47:44;101713.25;;;26.57;41.89
18784;BME280;9520;50.954;6.968;2022-07-11T00:48:07;101713.25;;;26.57;41.96
18784;BME280;9520;50.954;6.968;2022-07-11T00:48:28;101705.22;;;26.55;41.80
18784;BME280;9520;50.954;6.968;2022-07-11T00:48:51;101705.44;;;26.52;42.21
18784;BME280;9520;50.954;6.968;2022-07-11T00:49:13;101710.75;;;26.54;42.21
18784;BME280;9520;50.954;6.968;2022-07-11T00:49:35;101712.47;;;26.55;42.14
18784;BME280;9520;50.954;6.968;2022-07-11T00:49:58;101719.72;;;26.54;42.25
18784;BME280;9520;50.954;6.968;2022-07-11T00:50:20;101711.72;;;26.53;41.90
18784;BME280;9520;50.954;6.968;2022-07-11T00:50:41;101709.09;;;26.51;42.27
18784;BME280;9520;50.954;6.968;2022-07-11T00:51:04;101709.97;;;26.52;41.99
18784;BME280;9520;50.954;6.968;2022-07-11T00:51:26;101713.56;;;26.52;42.08
18784;BME280;9520;50.954;6.968;2022-07-11T00:51:49;101718.00;;;26.53;41.86
18784;BME280;9520;50.954;6.968;2022-07-11T00:52:11;101715.41;;;26.52;41.97
18784;BME280;9520;50.954;6.968;2022-07-11T00:52:33;101714.53;;;26.51;42.04
18784;BME280;9520;50.954;6.968;2022-07-11T00:52:56;101715.47;;;26.50;42.03
18784;BME280;9520;50.954;6.968;2022-07-11T00:53:20;101712.78;;;26.50;42.04
18784;BME280;9520;50.954;6.968;2022-07-11T00:53:42;101712.91;;;26.49;41.78
18784;BME280;9520;50.954;6.968;2022-07-11T00:54:06;101710.06;;;26.50;41.35
18784;BME280;9520;50.954;6.968;2022-07-11T00:54:29;101710.06;;;26.50;41.36
18784;BME280;9520;50.954;6.968;2022-07-11T00:54:52;101711.91;;;26.50;41.44
18784;BME280;9520;50.954;6.968;2022-07-11T00:55:15;101716.47;;;26.49;41.81
18784;BME280;9520;50.954;6.968;2022-07-11T00:55:36;101698.88;;;26.42;42.10
18784;BME280;9520;50.954;6.968;2022-07-11T00:55:59;101716.56;;;26.48;41.96
18784;BME280;9520;50.954;6.968;2022-07-11T00:56:25;101707.56;;;26.47;42.08
18784;BME280;9520;50.954;6.968;2022-07-11T00:56:47;101700.31;;;26.48;42.22
18784;BME280;9520;50.954;6.968;2022-07-11T00:57:09;101707.56;;;26.47;42.28
18784;BME280;9520;50.954;6.968;2022-07-11T00:57:33;101702.16;;;26.47;41.99
18784;BME280;9520;50.954;6.968;2022-07-11T00:57:55;101707.56;;;26.47;41.62
18784;BME280;9520;50.954;6.968;2022-07-11T00:58:17;101706.69;;;26.47;41.89
18784;BME280;9520;50.954;6.968;2022-07-11T00:58:39;101707.56;;;26.47;41.78
18784;BME280;9520;50.954;6.968;2022-07-11T00:59:01;101710.38;;;26.46;42.32
18784;BME280;9520;50.954;6.968;2022-07-11T00:59:24;101704.31;;;26.42;42.23
18784;BME280;9520;50.954;6.968;2022-07-11T00:59:45;101710.50;;;26.44;42.19
18784;BME280;9520;50.954;6.968;2022-07-11T01:00:08;101712.22;;;26.45;42.09
18784;BME280;9520;50.954;6.968;2022-07-11T01:00:32;101707.78;;;26.44;42.53
18784;BME280;9520;50.954;6.968;2022-07-11T01:00:57;101706.03;;;26.43;42.15
18784;BME280;9520;50.954;6.968;2022-07-11T01:01:20;101707.00;;;26.42;42.02
18784;BME280;9520;50.954;6.968;2022-07-11T01:01:43;101704.31;;;26.42;42.02
18784;BME280;9520;50.954;6.968;2022-07-11T01:02:05;101709.72;;;26.42;42.28
18784;BME280;9520;50.954;6.968;2022-07-11T01:02:27;101716.88;;;26.43;42.44
18784;BME280;9520;50.954;6.968;2022-07-11T01:02:49;101709.72;;;26.42;42.59
18784;BME280;9520;50.954;6.968;2022-07-11T01:03:12;101716.97;;;26.42;42.54
18784;BME280;9520;50.954;6.968;2022-07-11T01:03:34;101702.56;;;26.41;42.34
18784;BME280;9520;50.954;6.968;2022-07-11T01:03:56;101706.03;;;26.43;42.24
18784;BME280;9520;50.954;6.968;2022-07-11T01:04:18;101698.31;;;26.37;42.46
18784;BME280;9520;50.954;6.968;2022-07-11T01:04:41;101708.84;;;26.42;42.38
18784;BME280;9520;50.954;6.968;2022-07-11T01:05:03;101710.69;;;26.41;42.24
18784;BME280;9520;50.954;6.968;2022-07-11T01:05:25;101706.22;;;26.40;42.56
18784;BME280;9520;50.954;6.968;2022-07-11T01:05:47;101701.81;;;26.39;41.98
18784;BME280;9520;50.954;6.968;2022-07-11T01:06:09;101704.38;;;26.41;42.31
18784;BME280;9520;50.954;6.968;2022-07-11T01:06:32;101706.22;;;26.40;42.26
18784;BME280;9520;50.954;6.968;2022-07-11T01:06:53;101702.56;;;26.41;42.48
18784;BME280;9520;50.954;6.968;2022-07-11T01:07:15;101699.84;;;26.41;42.08
18784;BME280;9520;50.954;6.968;2022-07-11T01:07:38;101707.88;;;26.43;42.10
18784;BME280;9520;50.954;6.968;2022-07-11T01:08:01;101706.22;;;26.40;42.14
18784;BME280;9520;50.954;6.968;2022-07-11T01:08:22;101705.25;;;26.41;42.50
18784;BME280;9520;50.954;6.968;2022-07-11T01:08:44;101704.38;;;26.41;42.53
18784;BME280;9520;50.954;6.968;2022-07-11T01:09:06;101709.81;;;26.41;41.96
18784;BME280;9520;50.954;6.968;2022-07-11T01:09:29;101705.25;;;26.41;42.08
18784;BME280;9520;50.954;6.968;2022-07-11T01:09:51;101710.69;;;26.41;42.26
18784;BME280;9520;50.954;6.968;2022-07-11T01:10:13;101706.22;;;26.40;41.98
18784;BME280;9520;50.954;6.968;2022-07-11T01:10:35;101700.81;;;26.40;42.16
18784;BME280;9520;50.954;6.968;2022-07-11T01:10:59;101708.06;;;26.40;41.94
18784;BME280;9520;50.954;6.968;2022-07-11T01:11:21;101711.63;;;26.40;42.13
18784;BME280;9520;50.954;6.968;2022-07-11T01:11:44;101708.06;;;26.40;41.94
18784;BME280;9520;50.954;6.968;2022-07-11T01:12:06;101700.94;;;26.39;42.19
18784;BME280;9520;50.954;6.968;2022-07-11T01:12:28;101702.78;;;26.38;42.04
18784;BME280;9520;50.954;6.968;2022-07-11T01:12:50;101710.97;;;26.37;42.27
18784;BME280;9520;50.954;6.968;2022-07-11T01:13:13;101701.22;;;26.34;42.31
18784;BME280;9520;50.954;6.968;2022-07-11T01:13:34;101702.94;;;26.35;42.25
18784;BME280;9520;50.954;6.968;2022-07-11T01:13:56;101706.44;;;26.37;42.37
18784;BME280;9520;50.954;6.968;2022-07-11T01:14:18;101703.94;;;26.34;42.33
18784;BME280;9520;50.954;6.968;2022-07-11T01:14:50;101701.13;;;26.36;42.40
18784;BME280;9520;50.954;6.968;2022-07-11T01:15:14;101707.41;;;26.36;42.13
18784;BME280;9520;50.954;6.968;2022-07-11T01:15:37;101699.28;;;26.36;42.34
18784;BME280;9520;50.954;6.968;2022-07-11T01:16:09;101705.66;;;26.35;41.94
18784;BME280;9520;50.954;6.968;2022-07-11T01:16:31;101699.50;;;26.33;42.12
18784;BME280;9520;50.954;6.968;2022-07-11T01:16:54;101701.22;;;26.34;42.02
18784;BME280;9520;50.954;6.968;2022-07-11T01:17:15;101698.53;;;26.34;42.38
18784;BME280;9520;50.954;6.968;2022-07-11T01:17:37;101700.38;;;26.34;42.66
18784;BME280;9520;50.954;6.968;2022-07-11T01:17:59;101702.19;;;26.33;42.55
18784;BME280;9520;50.954;6.968;2022-07-11T01:18:21;101702.19;;;26.33;42.73
18784;BME280;9520;50.954;6.968;2022-07-11T01:18:45;101696.88;;;26.32;42.58
18784;BME280;9520;50.954;6.968;2022-07-11T01:19:07;101689.16;;;26.26;42.41
18784;BME280;9520;50.954;6.968;2022-07-11T01:19:29;101697.75;;;26.32;42.42
18784;BME280;9520;50.954;6.968;2022-07-11T01:19:50;101700.53;;;26.31;42.52
18784;BME280;9520;50.954;6.968;2022-07-11T01:20:13;101696.00;;;26.31;42.84
18784;BME280;9520;50.954;6.968;2022-07-11T01:20:35;101697.97;;;26.29;42.63
18784;BME280;9520;50.954;6.968;2022-07-11T01:20:56;101711.38;;;26.31;42.64
18784;BME280;9520;50.954;6.968;2022-07-11T01:21:22;101705.06;;;26.30;42.63
18784;BME280;9520;50.954;6.968;2022-07-11T01:21:49;101697.84;;;26.31;42.52
18784;BME280;9520;50.954;6.968;2022-07-11T01:22:14;101697.97;;;26.29;42.61
18784;BME280;9520;50.954;6.968;2022-07-11T01:22:39;101694.25;;;26.30;42.64
18784;BME280;9520;50.954;6.968;2022-07-11T01:23:03;101699.66;;;26.30;42.90
18784;BME280;9520;50.954;6.968;2022-07-11T01:23:25;101702.38;;;26.30;42.76
18784;BME280;9520;50.954;6.968;2022-07-11T01:23:47;101694.25;;;26.30;42.78
18784;BME280;9520;50.954;6.968;2022-07-11T01:24:10;101690.97;;;26.25;42.79
18784;BME280;9520;50.954;6.968;2022-07-11T01:24:32;101693.50;;;26.28;42.87
18784;BME280;9520;50.954;6.968;2022-07-11T01:24:54;101697.97;;;26.29;42.71
18784;BME280;9520;50.954;6.968;2022-07-11T01:25:18;101693.41;;;26.30;42.40
18784;BME280;9520;50.954;6.968;2022-07-11T01:25:51;101693.41;;;26.30;42.55
18784;BME280;9520;50.954;6.968;2022-07-11T01:26:13;101692.53;;;26.29;42.77
18784;BME280;9520;50.954;6.968;2022-07-11T01:26:36;101695.25;;;26.29;42.97
18784;BME280;9520;50.954;6.968;2022-07-11T01:26:59;101692.63;;;26.28;42.54
18784;BME280;9520;50.954;6.968;2022-07-11T01:27:22;101687.22;;;26.28;42.61
18784;BME280;9520;50.954;6.968;2022-07-11T01:27:44;101696.22;;;26.28;42.55
18784;BME280;9520;50.954;6.968;2022-07-11T01:28:06;101698.91;;;26.28;42.51
18784;BME280;9520;50.954;6.968;2022-07-11T01:28:28;101696.22;;;26.28;42.77
18784;BME280;9520;50.954;6.968;2022-07-11T01:28:51;101690.81;;;26.28;42.25
18784;BME280;9520;50.954;6.968;2022-07-11T01:29:14;101696.13;;;26.30;42.66
18784;BME280;9520;50.954;6.968;2022-07-11T01:29:35;101687.22;;;26.28;42.43
18784;BME280;9520;50.954;6.968;2022-07-11T01:29:58;101687.31;;;26.26;42.64
18784;BME280;9520;50.954;6.968;2022-07-11T01:30:20;101696.97;;;26.30;42.41
18784;BME280;9520;50.954;6.968;2022-07-11T01:30:42;101691.56;;;26.30;42.82
18784;BME280;9520;50.954;6.968;2022-07-11T01:31:04;101678.78;;;26.18;42.62
18784;BME280;9520;50.954;6.968;2022-07-11T01:31:26;101686.13;;;26.30;42.52
18784;BME280;9520;50.954;6.968;2022-07-11T01:31:49;101692.44;;;26.31;42.11
18784;BME280;9520;50.954;6.968;2022-07-11T01:32:10;101691.56;;;26.30;42.16
18784;BME280;9520;50.954;6.968;2022-07-11T01:32:32;101693.41;;;26.30;42.61
18784;BME280;9520;50.954;6.968;2022-07-11T01:32:54;101686.56;;;26.24;42.50
18784;BME280;9520;50.954;6.968;2022-07-11T01:33:16;101691.69;;;26.29;42.73
18784;BME280;9520;50.954;6.968;2022-07-11T01:33:39;101696.97;;;26.30;42.49
18784;BME280;9520;50.954;6.968;2022-07-11T01:34:01;101695.25;;;26.29;42.44
18784;BME280;9520;50.954;6.968;2022-07-11T01:34:23;101694.25;;;26.30;42.52
18784;BME280;9520;50.954;6.968;2022-07-11T01:34:46;101695.25;;;26.29;42.75
18784;BME280;9520;50.954;6.968;2022-07-11T01:35:08;101684.53;;;26.28;42.43
18784;BME280;9520;50.954;6.968;2022-07-11T01:35:30;101688.97;;;26.29;42.82
18784;BME280;9520;50.954;6.968;2022-07-11T01:35:51;101692.72;;;26.26;42.68
18784;BME280;9520;50.954;6.968;2022-07-11T01:36:13;101692.72;;;26.26;42.88
18784;BME280;9520;50.954;6.968;2022-07-11T01:36:36;101699.88;;;26.27;42.82
18784;BME280;9520;50.954;6.968;2022-07-11T01:36:57;101691.84;;;26.26;42.46
18784;BME280;9520;50.954;6.968;2022-07-11T01:37:19;101699.97;;;26.26;42.33
18784;BME280;9520;50.954;6.968;2022-07-11T01:37:41;101688.47;;;26.22;42.61
18784;BME280;9520;50.954;6.968;2022-07-11T01:38:05;101684.13;;;26.19;42.54
18784;BME280;9520;50.954;6.968;2022-07-11T01:38:26;101681.28;;;26.21;42.12
18784;BME280;9520;50.954;6.968;2022-07-11T01:38:48;101689.41;;;26.21;42.38
18784;BME280;9520;50.954;6.968;2022-07-11T01:39:10;101683.06;;;26.22;42.47
18784;BME280;9520;50.954;6.968;2022-07-11T01:39:33;101686.66;;;26.23;42.35
18784;BME280;9520;50.954;6.968;2022-07-11T01:39:54;101689.34;;;26.23;42.45
18784;BME280;9520;50.954;6.968;2022-07-11T01:40:16;101697.47;;;26.23;42.62
18784;BME280;9520;50.954;6.968;2022-07-11T01:40:38;101689.41;;;26.21;42.70
18784;BME280;9520;50.954;6.968;2022-07-11T01:41:00;101683.13;;;26.20;42.92
18784;BME280;9520;50.954;6.968;2022-07-11T01:41:22;101693.06;;;26.20;43.18
18784;BME280;9520;50.954;6.968;2022-07-11T01:41:44;101685.94;;;26.19;42.86
18784;BME280;9520;50.954;6.968;2022-07-11T01:42:06;101686.13;;;26.16;43.26
18784;BME280;9520;50.954;6.968;2022-07-11T01:42:28;101689.63;;;26.18;43.25
18784;BME280;9520;50.954;6.968;2022-07-11T01:42:50;101688.75;;;26.17;42.95
18784;BME280;9520;50.954;6.968;2022-07-11T01:43:12;101689.63;;;26.18;42.83
18784;BME280;9520;50.954;6.968;2022-07-11T01:43:34;101684.28;;;26.16;42.80
18784;BME280;9520;50.954;6.968;2022-07-11T01:43:55;101693.28;;;26.17;43.10
18784;BME280;9520;50.954;6.968;2022-07-11T01:44:17;101684.28;;;26.16;43.22
18784;BME280;9520;50.954;6.968;2022-07-11T01:44:40;101687.88;;;26.17;43.21
18784;BME280;9520;50.954;6.968;2022-07-11T01:45:02;101686.13;;;26.16;42.84
18784;BME280;9520;50.954;6.968;2022-07-11T01:45:23;101687.00;;;26.16;42.91
18784;BME280;9520;50.954;6.968;2022-07-11T01:45:45;101685.25;;;26.15;43.02
18784;BME280;9520;50.954;6.968;2022-07-11T01:46:07;101685.25;;;26.15;42.92
18784;BME280;9520;50.954;6.968;2022-07-11T01:46:30;101682.56;;;26.15;43.24
18784;BME280;9520;50.954;6.968;2022-07-11T01:46:52;101678.97;;;26.15;42.98
18784;BME280;9520;50.954;6.968;2022-07-11T01:47:14;101681.81;;;26.13;42.57
18784;BME280;9520;50.954;6.968;2022-07-11T01:47:36;101684.38;;;26.15;42.55
18784;BME280;9520;50.954;6.968;2022-07-11T01:47:57;101681.81;;;26.13;42.92
18784;BME280;9520;50.954;6.968;2022-07-11T01:48:21;101688.97;;;26.14;43.16
18784;BME280;9520;50.954;6.968;2022-07-11T01:48:43;101686.34;;;26.13;43.13
18784;BME280;9520;50.954;6.968;2022-07-11T01:49:04;101689.78;;;26.15;42.98
18784;BME280;9520;50.954;6.968;2022-07-11T01:49:26;101679.09;;;26.13;43.04
18784;BME280;9520;50.954;6.968;2022-07-11T01:49:51;101680.84;;;26.14;43.15
18784;BME280;9520;50.954;6.968;2022-07-11T01:50:12;101685.38;;;26.14;43.25
18784;BME280;9520;50.954;6.968;2022-07-11T01:50:34;101681.88;;;26.12;43.09
18784;BME280;9520;50.954;6.968;2022-07-11T01:50:56;101682.75;;;26.12;43.06
18784;BME280;9520;50.954;6.968;2022-07-11T01:51:18;101686.34;;;26.13;42.86
18784;BME280;9520;50.954;6.968;2022-07-11T01:51:40;101680.94;;;26.13;43.07
18784;BME280;9520;50.954;6.968;2022-07-11T01:52:02;101680.94;;;26.13;43.14
18784;BME280;9520;50.954;6.968;2022-07-11T01:52:24;101689.03;;;26.13;43.31
18784;BME280;9520;50.954;6.968;2022-07-11T01:52:47;101686.25;;;26.14;43.23
18784;BME280;9520;50.954;6.968;2022-07-11T01:53:11;101679.19;;;26.12;43.04
18784;BME280;9520;50.954;6.968;2022-07-11T01:53:33;101680.94;;;26.13;42.81
18784;BME280;9520;50.954;6.968;2022-07-11T01:53:55;101679.19;;;26.12;43.07
18784;BME280;9520;50.954;6.968;2022-07-11T01:54:17;101685.56;;;26.11;43.34
18784;BME280;9520;50.954;6.968;2022-07-11T01:54:39;101677.44;;;26.11;42.83
18784;BME280;9520;50.954;6.968;2022-07-11T01:55:01;101682.97;;;26.09;42.88
18784;BME280;9520;50.954;6.968;2022-07-11T01:55:23;101679.56;;;26.06;43.22
18784;BME280;9520;50.954;6.968;2022-07-11T01:55:44;101684.69;;;26.10;43.30
18784;BME280;9520;50.954;6.968;2022-07-11T01:56:27;101681.97;;;26.10;43.60
18784;BME280;9520;50.954;6.968;2022-07-11T01:56:53;101672.31;;;26.06;43.13
18784;BME280;9520;50.954;6.968;2022-07-11T01:57:15;101687.59;;;26.07;43.37
18784;BME280;9520;50.954;6.968;2022-07-11T01:57:38;101683.06;;;26.08;43.23
18784;BME280;9520;50.954;6.968;2022-07-11T01:57:59;101684.03;;;26.07;43.14
18784;BME280;9520;50.954;6.968;2022-07-11T01:58:21;101687.59;;;26.07;43.14
18784;BME280;9520;50.954;6.968;2022-07-11T01:58:43;101689.44;;;26.07;43.55
18784;BME280;9520;50.954;6.968;2022-07-11T01:59:06;101674.47;;;26.01;43.42
18784;BME280;9520;50.954;6.968;2022-07-11T01:59:28;101684.97;;;26.06;43.58
18784;BME280;9520;50.954;6.968;2022-07-11T01:59:50;101680.56;;;26.05;42.90
18784;BME280;9520;50.954;6.968;2022-07-11T02:00:13;101685.84;;;26.06;42.95
18784;BME280;9520;50.954;6.968;2022-07-11T02:00:34;101681.41;;;26.05;42.85
18784;BME280;9520;50.954;6.968;2022-07-11T02:00:58;101675.16;;;26.05;43.02
18784;BME280;9520;50.954;6.968;2022-07-11T02:01:19;101679.56;;;26.06;42.83
18784;BME280;9520;50.954;6.968;2022-07-11T02:01:41;101681.31;;;26.07;43.26
18784;BME280;9520;50.954;6.968;2022-07-11T02:02:04;101684.97;;;26.06;43.27
18784;BME280;9520;50.954;6.968;2022-07-11T02:02:27;101681.41;;;26.05;43.03
18784;BME280;9520;50.954;6.968;2022-07-11T02:02:49;101687.69;;;26.06;43.16
18784;BME280;9520;50.954;6.968;2022-07-11T02:03:11;101684.09;;;26.05;43.36
18784;BME280;9520;50.954;6.968;2022-07-11T02:03:32;101686.94;;;26.04;43.44